sensor_id;sensor_type;location;lat;lon;timestamp;P1;durP1;ratioP1;P2;durP2;ratioP2
42714;SDS011;28351;51.480;5.706;2023-02-23T00:00:23;64.13;;;29.55;;
42714;SDS011;28351;51.480;5.706;2023-02-23T00:02:54;56.13;;;27.60;;
42714;SDS011;28351;51.480;5.706;2023-02-23T00:05:22;58.53;;;28.00;;
42714;SDS011;28351;51.480;5.706;2023-02-23T00:07:50;59.33;;;26.75;;
42714;SDS011;28351;51.480;5.706;2023-02-23T00:10:16;63.55;;;27.88;;
42714;SDS011;28351;51.480;5.706;2023-02-23T00:12:43;61.50;;;26.85;;
42714;SDS011;28351;51.480;5.706;2023-02-23T00:15:16;61.15;;;28.73;;
42714;SDS011;28351;51.480;5.706;2023-02-23T00:17:44;63.20;;;28.65;;
42714;SDS011;28351;51.480;5.706;2023-02-23T00:20:11;73.47;;;30.27;;
42714;SDS011;28351;51.480;5.706;2023-02-23T00:22:38;56.45;;;27.20;;
42714;SDS011;28351;51.480;5.706;2023-02-23T00:25:04;62.25;;;28.02;;
42714;SDS011;28351;51.480;5.706;2023-02-23T00:27:45;62.00;;;27.35;;
42714;SDS011;28351;51.480;5.706;2023-02-23T00:30:12;62.33;;;27.55;;
42714;SDS011;28351;51.480;5.706;2023-02-23T00:32:38;65.38;;;29.75;;
42714;SDS011;28351;51.480;5.706;2023-02-23T00:35:07;66.72;;;29.17;;
42714;SDS011;28351;51.480;5.706;2023-02-23T00:37:36;66.50;;;27.55;;
42714;SDS011;28351;51.480;5.706;2023-02-23T00:40:02;72.10;;;28.65;;
42714;SDS011;28351;51.480;5.706;2023-02-23T00:42:48;68.05;;;29.23;;
42714;SDS011;28351;51.480;5.706;2023-02-23T00:45:33;73.65;;;29.33;;
42714;SDS011;28351;51.480;5.706;2023-02-23T00:48:00;70.25;;;29.10;;
42714;SDS011;28351;51.480;5.706;2023-02-23T00:50:27;77.35;;;30.63;;
42714;SDS011;28351;51.480;5.706;2023-02-23T00:52:55;66.70;;;27.92;;
42714;SDS011;28351;51.480;5.706;2023-02-23T00:55:23;76.32;;;29.70;;
42714;SDS011;28351;51.480;5.706;2023-02-23T00:57:49;72.25;;;29.55;;
42714;SDS011;28351;51.480;5.706;2023-02-23T01:00:15;72.60;;;31.63;;
42714;SDS011;28351;51.480;5.706;2023-02-23T01:02:47;76.15;;;30.48;;
42714;SDS011;28351;51.480;5.706;2023-02-23T01:05:13;72.05;;;30.27;;
42714;SDS011;28351;51.480;5.706;2023-02-23T01:07:40;71.43;;;30.33;;
42714;SDS011;28351;51.480;5.706;2023-02-23T01:10:06;68.68;;;29.67;;
42714;SDS011;28351;51.480;5.706;2023-02-23T01:12:44;79.10;;;30.02;;
42714;SDS011;28351;51.480;5.706;2023-02-23T01:15:13;76.60;;;30.83;;
42714;SDS011;28351;51.480;5.706;2023-02-23T01:17:40;71.85;;;30.02;;
42714;SDS011;28351;51.480;5.706;2023-02-23T01:20:07;81.40;;;32.50;;
42714;SDS011;28351;51.480;5.706;2023-02-23T01:22:42;75.15;;;32.03;;
42714;SDS011;28351;51.480;5.706;2023-02-23T01:25:12;69.45;;;30.88;;
42714;SDS011;28351;51.480;5.706;2023-02-23T01:27:39;82.82;;;30.17;;
42714;SDS011;28351;51.480;5.706;2023-02-23T01:30:05;75.32;;;32.00;;
42714;SDS011;28351;51.480;5.706;2023-02-23T01:32:33;72.30;;;30.38;;
42714;SDS011;28351;51.480;5.706;2023-02-23T01:35:01;72.07;;;30.58;;
42714;SDS011;28351;51.480;5.706;2023-02-23T01:37:32;83.95;;;31.92;;
42714;SDS011;28351;51.480;5.706;2023-02-23T01:40:04;68.45;;;29.75;;
42714;SDS011;28351;51.480;5.706;2023-02-23T01:42:37;79.43;;;31.15;;
42714;SDS011;28351;51.480;5.706;2023-02-23T01:47:49;67.32;;;29.70;;
42714;SDS011;28351;51.480;5.706;2023-02-23T01:50:17;81.63;;;32.45;;
42714;SDS011;28351;51.480;5.706;2023-02-23T01:52:44;82.00;;;31.33;;
42714;SDS011;28351;51.480;5.706;2023-02-23T01:55:11;77.05;;;30.75;;
42714;SDS011;28351;51.480;5.706;2023-02-23T01:57:45;70.18;;;31.33;;
42714;SDS011;28351;51.480;5.706;2023-02-23T02:00:11;79.30;;;31.67;;
42714;SDS011;28351;51.480;5.706;2023-02-23T02:02:39;82.07;;;32.17;;
42714;SDS011;28351;51.480;5.706;2023-02-23T02:05:05;77.93;;;33.00;;
42714;SDS011;28351;51.480;5.706;2023-02-23T02:07:38;87.35;;;33.13;;
42714;SDS011;28351;51.480;5.706;2023-02-23T02:10:18;72.65;;;31.48;;
42714;SDS011;28351;51.480;5.706;2023-02-23T02:13:03;73.38;;;31.55;;
42714;SDS011;28351;51.480;5.706;2023-02-23T02:15:31;76.95;;;33.03;;
42714;SDS011;28351;51.480;5.706;2023-02-23T02:20:46;80.40;;;32.30;;
42714;SDS011;28351;51.480;5.706;2023-02-23T02:37:28;105.80;;;36.95;;
42714;SDS011;28351;51.480;5.706;2023-02-23T02:48:19;97.18;;;34.60;;
42714;SDS011;28351;51.480;5.706;2023-02-23T02:56:45;99.90;;;33.60;;
42714;SDS011;28351;51.480;5.706;2023-02-23T02:59:14;95.73;;;34.57;;
42714;SDS011;28351;51.480;5.706;2023-02-23T03:02:01;102.68;;;35.08;;
42714;SDS011;28351;51.480;5.706;2023-02-23T03:04:46;98.00;;;32.13;;
42714;SDS011;28351;51.480;5.706;2023-02-23T03:07:33;96.43;;;34.13;;
42714;SDS011;28351;51.480;5.706;2023-02-23T03:19:38;88.30;;;32.47;;
42714;SDS011;28351;51.480;5.706;2023-02-23T03:22:52;95.45;;;32.45;;
42714;SDS011;28351;51.480;5.706;2023-02-23T03:31:53;104.05;;;33.97;;
42714;SDS011;28351;51.480;5.706;2023-02-23T03:35:03;89.55;;;29.45;;
42714;SDS011;28351;51.480;5.706;2023-02-23T03:40:52;105.95;;;32.97;;
42714;SDS011;28351;51.480;5.706;2023-02-23T03:43:41;94.97;;;31.70;;
42714;SDS011;28351;51.480;5.706;2023-02-23T03:46:46;100.85;;;32.80;;
42714;SDS011;28351;51.480;5.706;2023-02-23T03:52:23;94.53;;;30.88;;
42714;SDS011;28351;51.480;5.706;2023-02-23T03:55:14;97.93;;;32.95;;
42714;SDS011;28351;51.480;5.706;2023-02-23T03:58:01;96.05;;;32.10;;
42714;SDS011;28351;51.480;5.706;2023-02-23T04:00:51;96.78;;;31.60;;
42714;SDS011;28351;51.480;5.706;2023-02-23T04:03:39;96.30;;;33.13;;
42714;SDS011;28351;51.480;5.706;2023-02-23T04:06:27;103.25;;;31.73;;
42714;SDS011;28351;51.480;5.706;2023-02-23T04:09:15;94.90;;;30.25;;
42714;SDS011;28351;51.480;5.706;2023-02-23T04:17:33;103.87;;;32.30;;
42714;SDS011;28351;51.480;5.706;2023-02-23T04:19:59;112.55;;;33.60;;
42714;SDS011;28351;51.480;5.706;2023-02-23T04:22:25;97.97;;;30.30;;
42714;SDS011;28351;51.480;5.706;2023-02-23T04:24:50;101.90;;;32.30;;
42714;SDS011;28351;51.480;5.706;2023-02-23T04:27:16;105.07;;;32.38;;
42714;SDS011;28351;51.480;5.706;2023-02-23T04:29:42;103.57;;;32.65;;
42714;SDS011;28351;51.480;5.706;2023-02-23T04:32:18;101.82;;;32.83;;
42714;SDS011;28351;51.480;5.706;2023-02-23T04:34:44;112.95;;;33.30;;
42714;SDS011;28351;51.480;5.706;2023-02-23T04:37:10;111.82;;;31.77;;
42714;SDS011;28351;51.480;5.706;2023-02-23T04:39:37;112.47;;;35.03;;
42714;SDS011;28351;51.480;5.706;2023-02-23T04:42:02;111.28;;;32.25;;
42714;SDS011;28351;51.480;5.706;2023-02-23T04:44:28;111.97;;;34.65;;
42714;SDS011;28351;51.480;5.706;2023-02-23T04:46:55;99.22;;;31.35;;
42714;SDS011;28351;51.480;5.706;2023-02-23T04:49:29;103.43;;;31.95;;
42714;SDS011;28351;51.480;5.706;2023-02-23T04:52:04;102.45;;;32.83;;
42714;SDS011;28351;51.480;5.706;2023-02-23T04:54:30;110.20;;;32.88;;
42714;SDS011;28351;51.480;5.706;2023-02-23T04:56:55;110.13;;;33.45;;
42714;SDS011;28351;51.480;5.706;2023-02-23T04:59:21;98.95;;;31.58;;
42714;SDS011;28351;51.480;5.706;2023-02-23T05:01:47;113.30;;;32.83;;
42714;SDS011;28351;51.480;5.706;2023-02-23T05:04:12;107.13;;;32.80;;
42714;SDS011;28351;51.480;5.706;2023-02-23T05:06:38;104.07;;;31.48;;
42714;SDS011;28351;51.480;5.706;2023-02-23T05:09:03;105.10;;;32.00;;
42714;SDS011;28351;51.480;5.706;2023-02-23T05:11:33;111.78;;;32.35;;
42714;SDS011;28351;51.480;5.706;2023-02-23T05:13:59;117.60;;;33.75;;
42714;SDS011;28351;51.480;5.706;2023-02-23T05:16:25;102.03;;;31.73;;
42714;SDS011;28351;51.480;5.706;2023-02-23T05:18:50;108.95;;;32.25;;
42714;SDS011;28351;51.480;5.706;2023-02-23T05:21:16;114.18;;;34.33;;
42714;SDS011;28351;51.480;5.706;2023-02-23T05:23:41;106.03;;;33.55;;
42714;SDS011;28351;51.480;5.706;2023-02-23T05:26:08;108.35;;;32.33;;
42714;SDS011;28351;51.480;5.706;2023-02-23T05:28:36;105.05;;;33.85;;
42714;SDS011;28351;51.480;5.706;2023-02-23T05:31:04;107.15;;;33.75;;
42714;SDS011;28351;51.480;5.706;2023-02-23T05:33:30;105.25;;;33.60;;
42714;SDS011;28351;51.480;5.706;2023-02-23T05:35:57;108.68;;;33.08;;
42714;SDS011;28351;51.480;5.706;2023-02-23T05:38:23;113.43;;;33.58;;
42714;SDS011;28351;51.480;5.706;2023-02-23T05:40:49;102.32;;;32.40;;
42714;SDS011;28351;51.480;5.706;2023-02-23T05:43:14;107.90;;;32.10;;
42714;SDS011;28351;51.480;5.706;2023-02-23T05:45:43;100.32;;;32.15;;
42714;SDS011;28351;51.480;5.706;2023-02-23T05:48:11;104.88;;;31.58;;
42714;SDS011;28351;51.480;5.706;2023-02-23T05:50:38;109.50;;;32.35;;
42714;SDS011;28351;51.480;5.706;2023-02-23T05:53:03;107.38;;;32.42;;
42714;SDS011;28351;51.480;5.706;2023-02-23T05:55:29;98.43;;;31.83;;
42714;SDS011;28351;51.480;5.706;2023-02-23T05:57:55;111.50;;;33.92;;
42714;SDS011;28351;51.480;5.706;2023-02-23T06:00:24;117.38;;;33.38;;
42714;SDS011;28351;51.480;5.706;2023-02-23T06:02:49;109.35;;;31.60;;
42714;SDS011;28351;51.480;5.706;2023-02-23T06:05:17;95.43;;;28.75;;
42714;SDS011;28351;51.480;5.706;2023-02-23T06:07:42;112.72;;;32.50;;
42714;SDS011;28351;51.480;5.706;2023-02-23T06:10:08;120.68;;;32.53;;
42714;SDS011;28351;51.480;5.706;2023-02-23T06:12:34;113.20;;;31.70;;
42714;SDS011;28351;51.480;5.706;2023-02-23T06:14:59;111.95;;;33.38;;
42714;SDS011;28351;51.480;5.706;2023-02-23T06:17:25;114.03;;;32.80;;
42714;SDS011;28351;51.480;5.706;2023-02-23T06:19:50;101.63;;;30.67;;
42714;SDS011;28351;51.480;5.706;2023-02-23T06:22:16;105.10;;;33.25;;
42714;SDS011;28351;51.480;5.706;2023-02-23T06:24:47;106.18;;;32.35;;
42714;SDS011;28351;51.480;5.706;2023-02-23T06:27:13;110.05;;;32.92;;
42714;SDS011;28351;51.480;5.706;2023-02-23T06:29:39;100.15;;;31.30;;
42714;SDS011;28351;51.480;5.706;2023-02-23T06:32:05;109.72;;;31.45;;
42714;SDS011;28351;51.480;5.706;2023-02-23T06:34:31;101.30;;;31.35;;
42714;SDS011;28351;51.480;5.706;2023-02-23T06:36:58;108.70;;;31.70;;
42714;SDS011;28351;51.480;5.706;2023-02-23T06:39:23;112.40;;;33.60;;
42714;SDS011;28351;51.480;5.706;2023-02-23T06:41:49;102.97;;;31.92;;
42714;SDS011;28351;51.480;5.706;2023-02-23T06:44:15;99.65;;;31.90;;
42714;SDS011;28351;51.480;5.706;2023-02-23T06:46:40;103.75;;;32.45;;
42714;SDS011;28351;51.480;5.706;2023-02-23T06:49:06;100.55;;;31.50;;
42714;SDS011;28351;51.480;5.706;2023-02-23T06:51:31;104.13;;;32.63;;
42714;SDS011;28351;51.480;5.706;2023-02-23T06:53:57;111.97;;;32.53;;
42714;SDS011;28351;51.480;5.706;2023-02-23T06:56:23;94.15;;;30.08;;
42714;SDS011;28351;51.480;5.706;2023-02-23T06:58:48;112.32;;;32.17;;
42714;SDS011;28351;51.480;5.706;2023-02-23T07:01:14;100.82;;;28.73;;
42714;SDS011;28351;51.480;5.706;2023-02-23T07:03:41;95.55;;;30.60;;
42714;SDS011;28351;51.480;5.706;2023-02-23T07:06:06;108.78;;;31.65;;
42714;SDS011;28351;51.480;5.706;2023-02-23T07:08:32;115.72;;;32.25;;
42714;SDS011;28351;51.480;5.706;2023-02-23T07:11:05;95.05;;;29.00;;
42714;SDS011;28351;51.480;5.706;2023-02-23T07:13:32;108.22;;;32.33;;
42714;SDS011;28351;51.480;5.706;2023-02-23T07:15:58;103.53;;;29.92;;
42714;SDS011;28351;51.480;5.706;2023-02-23T07:18:24;100.82;;;30.60;;
42714;SDS011;28351;51.480;5.706;2023-02-23T07:20:49;89.35;;;28.52;;
42714;SDS011;28351;51.480;5.706;2023-02-23T07:23:18;108.07;;;31.05;;
42714;SDS011;28351;51.480;5.706;2023-02-23T07:25:43;102.90;;;31.60;;
42714;SDS011;28351;51.480;5.706;2023-02-23T07:28:09;89.32;;;29.90;;
42714;SDS011;28351;51.480;5.706;2023-02-23T07:30:38;96.60;;;29.88;;
42714;SDS011;28351;51.480;5.706;2023-02-23T07:33:03;102.95;;;29.58;;
42714;SDS011;28351;51.480;5.706;2023-02-23T07:35:29;92.10;;;28.20;;
42714;SDS011;28351;51.480;5.706;2023-02-23T07:37:55;96.38;;;30.15;;
42714;SDS011;28351;51.480;5.706;2023-02-23T07:40:27;97.63;;;28.42;;
42714;SDS011;28351;51.480;5.706;2023-02-23T07:42:53;92.88;;;27.25;;
42714;SDS011;28351;51.480;5.706;2023-02-23T07:45:19;89.60;;;28.95;;
42714;SDS011;28351;51.480;5.706;2023-02-23T07:47:45;102.13;;;30.00;;
42714;SDS011;28351;51.480;5.706;2023-02-23T07:50:10;101.82;;;30.05;;
42714;SDS011;28351;51.480;5.706;2023-02-23T07:52:37;101.45;;;31.60;;
42714;SDS011;28351;51.480;5.706;2023-02-23T07:55:06;95.22;;;28.90;;
42714;SDS011;28351;51.480;5.706;2023-02-23T07:57:32;105.03;;;30.83;;
42714;SDS011;28351;51.480;5.706;2023-02-23T07:59:58;97.70;;;30.17;;
42714;SDS011;28351;51.480;5.706;2023-02-23T08:02:24;92.40;;;28.77;;
42714;SDS011;28351;51.480;5.706;2023-02-23T08:04:50;96.18;;;27.60;;
42714;SDS011;28351;51.480;5.706;2023-02-23T08:07:21;93.03;;;30.27;;
42714;SDS011;28351;51.480;5.706;2023-02-23T08:09:48;99.90;;;29.08;;
42714;SDS011;28351;51.480;5.706;2023-02-23T08:12:14;99.35;;;30.35;;
42714;SDS011;28351;51.480;5.706;2023-02-23T08:14:40;103.47;;;30.77;;
42714;SDS011;28351;51.480;5.706;2023-02-23T08:17:06;88.70;;;26.23;;
42714;SDS011;28351;51.480;5.706;2023-02-23T08:19:32;95.93;;;28.52;;
42714;SDS011;28351;51.480;5.706;2023-02-23T08:21:58;83.55;;;27.15;;
42714;SDS011;28351;51.480;5.706;2023-02-23T08:24:24;93.57;;;27.33;;
42714;SDS011;28351;51.480;5.706;2023-02-23T08:26:50;84.20;;;25.92;;
42714;SDS011;28351;51.480;5.706;2023-02-23T08:29:16;86.28;;;26.17;;
42714;SDS011;28351;51.480;5.706;2023-02-23T08:31:42;78.90;;;24.95;;
42714;SDS011;28351;51.480;5.706;2023-02-23T08:34:11;84.32;;;25.50;;
42714;SDS011;28351;51.480;5.706;2023-02-23T08:36:37;68.45;;;23.98;;
42714;SDS011;28351;51.480;5.706;2023-02-23T08:39:04;88.43;;;26.08;;
42714;SDS011;28351;51.480;5.706;2023-02-23T08:41:31;85.50;;;27.48;;
42714;SDS011;28351;51.480;5.706;2023-02-23T08:44:00;87.72;;;25.95;;
42714;SDS011;28351;51.480;5.706;2023-02-23T08:46:25;75.38;;;25.05;;
42714;SDS011;28351;51.480;5.706;2023-02-23T08:48:51;93.93;;;26.52;;
42714;SDS011;28351;51.480;5.706;2023-02-23T08:51:17;87.50;;;26.60;;
42714;SDS011;28351;51.480;5.706;2023-02-23T08:53:43;82.28;;;24.52;;
42714;SDS011;28351;51.480;5.706;2023-02-23T08:56:09;80.15;;;24.38;;
42714;SDS011;28351;51.480;5.706;2023-02-23T08:58:36;74.63;;;23.92;;
42714;SDS011;28351;51.480;5.706;2023-02-23T09:01:03;77.18;;;26.58;;
42714;SDS011;28351;51.480;5.706;2023-02-23T09:03:29;78.97;;;24.40;;
42714;SDS011;28351;51.480;5.706;2023-02-23T09:05:56;79.15;;;24.33;;
42714;SDS011;28351;51.480;5.706;2023-02-23T09:08:23;71.93;;;24.65;;
42714;SDS011;28351;51.480;5.706;2023-02-23T09:10:49;71.90;;;23.25;;
42714;SDS011;28351;51.480;5.706;2023-02-23T09:13:14;79.25;;;24.92;;
42714;SDS011;28351;51.480;5.706;2023-02-23T09:15:41;72.55;;;22.65;;
42714;SDS011;28351;51.480;5.706;2023-02-23T09:18:09;68.40;;;23.02;;
42714;SDS011;28351;51.480;5.706;2023-02-23T09:20:39;66.47;;;23.30;;
42714;SDS011;28351;51.480;5.706;2023-02-23T09:23:06;78.18;;;23.55;;
42714;SDS011;28351;51.480;5.706;2023-02-23T09:25:31;66.28;;;22.73;;
42714;SDS011;28351;51.480;5.706;2023-02-23T09:27:57;70.95;;;23.25;;
42714;SDS011;28351;51.480;5.706;2023-02-23T09:30:24;62.33;;;21.33;;
42714;SDS011;28351;51.480;5.706;2023-02-23T09:32:52;64.15;;;21.52;;
42714;SDS011;28351;51.480;5.706;2023-02-23T09:35:19;67.88;;;23.38;;
42714;SDS011;28351;51.480;5.706;2023-02-23T09:37:46;71.93;;;24.40;;
42714;SDS011;28351;51.480;5.706;2023-02-23T09:40:14;69.68;;;23.27;;
42714;SDS011;28351;51.480;5.706;2023-02-23T09:45:23;67.13;;;22.30;;
42714;SDS011;28351;51.480;5.706;2023-02-23T09:50:31;67.25;;;23.48;;
42714;SDS011;28351;51.480;5.706;2023-02-23T09:55:30;59.28;;;21.33;;
42714;SDS011;28351;51.480;5.706;2023-02-23T09:57:56;61.33;;;22.10;;
42714;SDS011;28351;51.480;5.706;2023-02-23T10:00:33;65.90;;;22.40;;
42714;SDS011;28351;51.480;5.706;2023-02-23T10:05:41;65.80;;;23.10;;
42714;SDS011;28351;51.480;5.706;2023-02-23T10:08:16;62.28;;;23.05;;
42714;SDS011;28351;51.480;5.706;2023-02-23T10:10:47;67.32;;;21.83;;
42714;SDS011;28351;51.480;5.706;2023-02-23T10:16:16;55.03;;;20.35;;
42714;SDS011;28351;51.480;5.706;2023-02-23T10:18:52;59.95;;;21.23;;
42714;SDS011;28351;51.480;5.706;2023-02-23T10:26:24;60.50;;;22.35;;
42714;SDS011;28351;51.480;5.706;2023-02-23T10:28:56;56.55;;;19.67;;
42714;SDS011;28351;51.480;5.706;2023-02-23T10:31:32;52.28;;;20.50;;
42714;SDS011;28351;51.480;5.706;2023-02-23T10:34:05;48.05;;;19.00;;
42714;SDS011;28351;51.480;5.706;2023-02-23T10:36:43;45.13;;;18.23;;
42714;SDS011;28351;51.480;5.706;2023-02-23T10:39:17;49.00;;;19.27;;
42714;SDS011;28351;51.480;5.706;2023-02-23T10:41:43;52.10;;;19.63;;
42714;SDS011;28351;51.480;5.706;2023-02-23T10:44:13;50.83;;;19.23;;
42714;SDS011;28351;51.480;5.706;2023-02-23T10:46:44;49.03;;;18.27;;
42714;SDS011;28351;51.480;5.706;2023-02-23T10:49:18;45.22;;;17.60;;
42714;SDS011;28351;51.480;5.706;2023-02-23T10:51:46;46.28;;;17.23;;
42714;SDS011;28351;51.480;5.706;2023-02-23T10:54:35;51.15;;;17.58;;
42714;SDS011;28351;51.480;5.706;2023-02-23T10:57:03;43.35;;;16.48;;
42714;SDS011;28351;51.480;5.706;2023-02-23T10:59:31;50.95;;;19.33;;
42714;SDS011;28351;51.480;5.706;2023-02-23T11:01:57;53.45;;;19.05;;
42714;SDS011;28351;51.480;5.706;2023-02-23T11:04:26;63.50;;;21.15;;
42714;SDS011;28351;51.480;5.706;2023-02-23T11:07:14;56.30;;;22.60;;
42714;SDS011;28351;51.480;5.706;2023-02-23T11:09:42;57.35;;;23.15;;
42714;SDS011;28351;51.480;5.706;2023-02-23T11:14:45;57.67;;;22.70;;
42714;SDS011;28351;51.480;5.706;2023-02-23T11:17:31;65.25;;;24.63;;
42714;SDS011;28351;51.480;5.706;2023-02-23T11:19:59;68.97;;;25.30;;
42714;SDS011;28351;51.480;5.706;2023-02-23T11:22:32;63.75;;;25.98;;
42714;SDS011;28351;51.480;5.706;2023-02-23T11:25:13;63.92;;;25.13;;
42714;SDS011;28351;51.480;5.706;2023-02-23T11:27:46;65.22;;;24.73;;
42714;SDS011;28351;51.480;5.706;2023-02-23T11:30:15;57.90;;;24.83;;
42714;SDS011;28351;51.480;5.706;2023-02-23T11:32:48;67.85;;;26.25;;
42714;SDS011;28351;51.480;5.706;2023-02-23T11:37:53;62.30;;;26.10;;
42714;SDS011;28351;51.480;5.706;2023-02-23T11:40:29;58.42;;;25.48;;
42714;SDS011;28351;51.480;5.706;2023-02-23T11:42:59;62.67;;;25.05;;
42714;SDS011;28351;51.480;5.706;2023-02-23T11:45:47;62.67;;;25.73;;
42714;SDS011;28351;51.480;5.706;2023-02-23T11:48:22;67.53;;;25.85;;
42714;SDS011;28351;51.480;5.706;2023-02-23T11:50:58;68.50;;;26.52;;
42714;SDS011;28351;51.480;5.706;2023-02-23T11:53:35;71.15;;;27.17;;
42714;SDS011;28351;51.480;5.706;2023-02-23T11:56:04;65.20;;;26.90;;
42714;SDS011;28351;51.480;5.706;2023-02-23T11:58:37;75.40;;;27.40;;
42714;SDS011;28351;51.480;5.706;2023-02-23T12:01:08;73.78;;;27.52;;
42714;SDS011;28351;51.480;5.706;2023-02-23T12:03:46;66.00;;;27.45;;
42714;SDS011;28351;51.480;5.706;2023-02-23T12:06:28;70.07;;;27.55;;
42714;SDS011;28351;51.480;5.706;2023-02-23T12:09:19;68.60;;;26.88;;
42714;SDS011;28351;51.480;5.706;2023-02-23T12:11:49;62.85;;;24.60;;
42714;SDS011;28351;51.480;5.706;2023-02-23T12:17:12;61.58;;;24.92;;
42714;SDS011;28351;51.480;5.706;2023-02-23T12:19:48;69.60;;;24.55;;
42714;SDS011;28351;51.480;5.706;2023-02-23T12:22:28;61.88;;;25.17;;
42714;SDS011;28351;51.480;5.706;2023-02-23T12:27:28;62.55;;;24.20;;
42714;SDS011;28351;51.480;5.706;2023-02-23T12:33:08;67.38;;;25.02;;
42714;SDS011;28351;51.480;5.706;2023-02-23T12:40:51;65.97;;;25.08;;
42714;SDS011;28351;51.480;5.706;2023-02-23T12:43:49;62.65;;;23.40;;
42714;SDS011;28351;51.480;5.706;2023-02-23T12:46:40;59.88;;;23.80;;
42714;SDS011;28351;51.480;5.706;2023-02-23T12:52:06;60.67;;;23.95;;
42714;SDS011;28351;51.480;5.706;2023-02-23T12:54:49;57.53;;;22.75;;
42714;SDS011;28351;51.480;5.706;2023-02-23T13:05:43;58.50;;;22.52;;
42714;SDS011;28351;51.480;5.706;2023-02-23T13:16:51;49.72;;;21.08;;
42714;SDS011;28351;51.480;5.706;2023-02-23T13:19:28;50.75;;;21.98;;
42714;SDS011;28351;51.480;5.706;2023-02-23T13:24:46;49.33;;;21.08;;
42714;SDS011;28351;51.480;5.706;2023-02-23T13:30:01;44.30;;;18.90;;
42714;SDS011;28351;51.480;5.706;2023-02-23T13:32:32;48.53;;;19.13;;
42714;SDS011;28351;51.480;5.706;2023-02-23T13:35:03;45.33;;;18.08;;
42714;SDS011;28351;51.480;5.706;2023-02-23T13:40:35;45.80;;;18.85;;
42714;SDS011;28351;51.480;5.706;2023-02-23T13:56:42;38.75;;;16.00;;
42714;SDS011;28351;51.480;5.706;2023-02-23T13:59:18;33.53;;;15.07;;
42714;SDS011;28351;51.480;5.706;2023-02-23T14:01:50;36.08;;;16.13;;
42714;SDS011;28351;51.480;5.706;2023-02-23T14:04:21;29.85;;;14.48;;
42714;SDS011;28351;51.480;5.706;2023-02-23T14:07:31;33.00;;;13.93;;
42714;SDS011;28351;51.480;5.706;2023-02-23T14:09:58;29.27;;;13.05;;
42714;SDS011;28351;51.480;5.706;2023-02-23T14:14:56;26.98;;;12.50;;
42714;SDS011;28351;51.480;5.706;2023-02-23T14:26:12;22.92;;;11.82;;
42714;SDS011;28351;51.480;5.706;2023-02-23T14:29:26;20.48;;;10.90;;
42714;SDS011;28351;51.480;5.706;2023-02-23T14:31:35;19.55;;;10.00;;
42714;SDS011;28351;51.480;5.706;2023-02-23T14:34:05;19.35;;;9.70;;
42714;SDS011;28351;51.480;5.706;2023-02-23T14:36:34;21.58;;;9.35;;
42714;SDS011;28351;51.480;5.706;2023-02-23T14:39:46;17.25;;;8.95;;
42714;SDS011;28351;51.480;5.706;2023-02-23T14:41:58;17.95;;;8.80;;
42714;SDS011;28351;51.480;5.706;2023-02-23T14:44:36;17.40;;;9.00;;
42714;SDS011;28351;51.480;5.706;2023-02-23T14:49:37;17.08;;;8.75;;
42714;SDS011;28351;51.480;5.706;2023-02-23T14:52:12;13.45;;;7.78;;
42714;SDS011;28351;51.480;5.706;2023-02-23T14:54:43;13.85;;;7.95;;
42714;SDS011;28351;51.480;5.706;2023-02-23T14:57:21;15.88;;;8.05;;
42714;SDS011;28351;51.480;5.706;2023-02-23T15:00:01;17.35;;;8.32;;
42714;SDS011;28351;51.480;5.706;2023-02-23T15:02:31;15.40;;;8.07;;
42714;SDS011;28351;51.480;5.706;2023-02-23T15:04:57;14.88;;;8.70;;
42714;SDS011;28351;51.480;5.706;2023-02-23T15:07:29;15.65;;;7.90;;
42714;SDS011;28351;51.480;5.706;2023-02-23T15:10:00;16.20;;;8.40;;
42714;SDS011;28351;51.480;5.706;2023-02-23T15:12:34;15.45;;;8.43;;
42714;SDS011;28351;51.480;5.706;2023-02-23T15:15:03;16.63;;;9.15;;
42714;SDS011;28351;51.480;5.706;2023-02-23T15:17:36;17.92;;;9.35;;
42714;SDS011;28351;51.480;5.706;2023-02-23T15:20:06;21.77;;;9.20;;
42714;SDS011;28351;51.480;5.706;2023-02-23T15:22:36;17.27;;;9.38;;
42714;SDS011;28351;51.480;5.706;2023-02-23T15:27:39;19.45;;;9.52;;
42714;SDS011;28351;51.480;5.706;2023-02-23T15:30:19;20.83;;;9.63;;
42714;SDS011;28351;51.480;5.706;2023-02-23T15:32:48;23.95;;;9.85;;
42714;SDS011;28351;51.480;5.706;2023-02-23T15:35:22;21.50;;;9.20;;
42714;SDS011;28351;51.480;5.706;2023-02-23T15:37:48;23.50;;;9.75;;
42714;SDS011;28351;51.480;5.706;2023-02-23T15:40:15;21.73;;;9.57;;
42714;SDS011;28351;51.480;5.706;2023-02-23T15:45:39;20.23;;;10.20;;
42714;SDS011;28351;51.480;5.706;2023-02-23T15:48:21;22.10;;;8.65;;
42714;SDS011;28351;51.480;5.706;2023-02-23T15:50:50;22.58;;;9.35;;
42714;SDS011;28351;51.480;5.706;2023-02-23T15:55:57;21.70;;;8.65;;
42714;SDS011;28351;51.480;5.706;2023-02-23T15:58:36;19.65;;;8.07;;
42714;SDS011;28351;51.480;5.706;2023-02-23T16:08:05;19.25;;;7.63;;
42714;SDS011;28351;51.480;5.706;2023-02-23T16:11:00;21.35;;;8.75;;
42714;SDS011;28351;51.480;5.706;2023-02-23T16:13:42;18.35;;;8.27;;
42714;SDS011;28351;51.480;5.706;2023-02-23T16:16:18;16.95;;;7.78;;
42714;SDS011;28351;51.480;5.706;2023-02-23T16:18:52;20.65;;;7.85;;
42714;SDS011;28351;51.480;5.706;2023-02-23T16:21:25;20.75;;;8.52;;
42714;SDS011;28351;51.480;5.706;2023-02-23T16:23:54;22.00;;;8.30;;
42714;SDS011;28351;51.480;5.706;2023-02-23T16:28:58;25.17;;;10.50;;
42714;SDS011;28351;51.480;5.706;2023-02-23T16:32:00;24.38;;;9.32;;
42714;SDS011;28351;51.480;5.706;2023-02-23T16:34:26;18.02;;;8.85;;
42714;SDS011;28351;51.480;5.706;2023-02-23T16:36:56;23.67;;;9.57;;
42714;SDS011;28351;51.480;5.706;2023-02-23T16:39:25;19.60;;;7.95;;
42714;SDS011;28351;51.480;5.706;2023-02-23T16:41:53;21.98;;;8.95;;
42714;SDS011;28351;51.480;5.706;2023-02-23T16:44:22;19.77;;;8.88;;
42714;SDS011;28351;51.480;5.706;2023-02-23T16:46:54;22.90;;;9.30;;
42714;SDS011;28351;51.480;5.706;2023-02-23T16:49:20;14.65;;;6.95;;
42714;SDS011;28351;51.480;5.706;2023-02-23T16:51:47;17.88;;;8.57;;
42714;SDS011;28351;51.480;5.706;2023-02-23T16:54:16;21.20;;;8.30;;
42714;SDS011;28351;51.480;5.706;2023-02-23T16:56:41;16.27;;;7.65;;
42714;SDS011;28351;51.480;5.706;2023-02-23T16:59:08;16.25;;;7.75;;
42714;SDS011;28351;51.480;5.706;2023-02-23T17:01:40;18.90;;;7.65;;
42714;SDS011;28351;51.480;5.706;2023-02-23T17:04:12;21.80;;;10.45;;
42714;SDS011;28351;51.480;5.706;2023-02-23T17:06:39;18.90;;;8.73;;
42714;SDS011;28351;51.480;5.706;2023-02-23T17:09:07;20.27;;;8.50;;
42714;SDS011;28351;51.480;5.706;2023-02-23T17:11:34;17.70;;;8.25;;
42714;SDS011;28351;51.480;5.706;2023-02-23T17:14:00;20.50;;;8.55;;
42714;SDS011;28351;51.480;5.706;2023-02-23T17:16:25;17.63;;;7.95;;
42714;SDS011;28351;51.480;5.706;2023-02-23T17:18:51;19.05;;;7.75;;
42714;SDS011;28351;51.480;5.706;2023-02-23T17:21:16;18.73;;;8.18;;
42714;SDS011;28351;51.480;5.706;2023-02-23T17:23:47;19.00;;;8.05;;
42714;SDS011;28351;51.480;5.706;2023-02-23T17:26:18;17.63;;;8.02;;
42714;SDS011;28351;51.480;5.706;2023-02-23T17:28:46;20.00;;;8.90;;
42714;SDS011;28351;51.480;5.706;2023-02-23T17:31:12;22.08;;;7.95;;
42714;SDS011;28351;51.480;5.706;2023-02-23T17:33:38;19.13;;;9.02;;